createdAt,value
2022-07-31T00:00:20.393Z,8.73
2022-07-31T00:02:22.387Z,7.00
2022-07-31T00:04:24.250Z,9.48
2022-07-31T00:06:26.032Z,7.65
2022-07-31T00:08:27.949Z,5.97
2022-07-31T00:10:30.114Z,6.50
2022-07-31T00:12:32.415Z,6.53
2022-07-31T00:14:34.291Z,6.38
2022-07-31T00:16:36.113Z,5.05
2022-07-31T00:18:38.003Z,6.53
2022-07-31T00:20:39.876Z,4.32
2022-07-31T00:22:43.194Z,5.65
2022-07-31T00:24:45.109Z,4.85
2022-07-31T00:26:46.875Z,6.90
2022-07-31T00:28:54.854Z,4.70
2022-07-31T00:30:56.682Z,7.55
2022-07-31T00:33:01.603Z,3.97
2022-07-31T00:35:03.767Z,5.10
2022-07-31T00:37:05.818Z,3.90
2022-07-31T00:39:07.814Z,5.55
2022-07-31T00:41:09.778Z,5.85
2022-07-31T00:43:13.157Z,4.40
2022-07-31T00:45:14.952Z,4.80
2022-07-31T00:47:23.829Z,5.75
2022-07-31T00:49:27.497Z,4.63
2022-07-31T00:51:40.275Z,8.45
2022-07-31T00:53:42.495Z,4.35
2022-07-31T00:55:51.948Z,4.40
2022-07-31T00:57:53.994Z,4.00
2022-07-31T00:59:55.844Z,4.43
2022-07-31T01:01:58.672Z,4.35
2022-07-31T01:04:00.567Z,3.83
2022-07-31T01:06:03.609Z,3.58
2022-07-31T01:08:05.805Z,2.60
2022-07-31T01:10:10.818Z,3.65
2022-07-31T01:12:21.312Z,4.43
2022-07-31T01:14:29.837Z,3.33
2022-07-31T01:16:36.940Z,2.70
2022-07-31T01:18:41.254Z,2.53
2022-07-31T01:20:45.745Z,4.03
2022-07-31T01:23:16.394Z,3.35
2022-07-31T01:25:53.260Z,2.75
2022-07-31T01:28:01.337Z,3.03
2022-07-31T01:30:04.965Z,2.42
2022-07-31T01:32:14.928Z,2.92
2022-07-31T01:34:23.234Z,4.07
2022-07-31T01:36:34.786Z,1.83
2022-07-31T01:38:45.698Z,3.20
2022-07-31T01:40:54.723Z,2.35
2022-07-31T01:43:27.256Z,3.75
2022-07-31T01:45:30.908Z,2.03
2022-07-31T01:47:35.362Z,3.60
2022-07-31T01:49:38.905Z,2.17
2022-07-31T01:51:45.016Z,1.90
2022-07-31T01:53:47.464Z,2.00
2022-07-31T01:56:03.291Z,1.90
2022-07-31T01:58:10.713Z,1.80
2022-07-31T02:00:33.262Z,1.80
2022-07-31T02:02:36.787Z,1.70
2022-07-31T02:04:47.183Z,2.08
2022-07-31T02:06:51.277Z,2.20
2022-07-31T02:08:55.782Z,1.63
2022-07-31T02:11:01.289Z,2.63
2022-07-31T02:13:06.994Z,1.70
2022-07-31T02:15:13.015Z,1.60
2022-07-31T02:17:22.599Z,2.22
2022-07-31T02:19:55.384Z,1.80
2022-07-31T02:22:03.254Z,2.10
2022-07-31T02:24:06.579Z,3.90
2022-07-31T02:26:09.122Z,2.00
2022-07-31T02:28:15.275Z,1.83
2022-07-31T02:30:18.471Z,1.98
2022-07-31T02:32:25.364Z,2.10
2022-07-31T02:34:29.955Z,3.13
2022-07-31T02:36:33.674Z,4.85
2022-07-31T02:38:36.423Z,2.15
2022-07-31T02:40:40.345Z,2.42
2022-07-31T02:42:46.589Z,3.28
2022-07-31T02:44:49.902Z,3.38
2022-07-31T02:46:52.207Z,2.10
2022-07-31T02:48:55.972Z,3.70
2022-07-31T02:50:59.467Z,3.42
2022-07-31T02:53:01.630Z,5.25
2022-07-31T02:55:04.204Z,3.33
2022-07-31T02:57:06.763Z,4.80
2022-07-31T02:59:09.688Z,3.25
2022-07-31T03:01:34.507Z,3.83
2022-07-31T03:03:36.424Z,5.07
2022-07-31T03:05:38.296Z,4.20
2022-07-31T03:07:40.075Z,3.15
2022-07-31T03:09:41.890Z,3.22
2022-07-31T03:12:07.104Z,3.33
2022-07-31T03:14:12.158Z,3.33
2022-07-31T03:16:15.161Z,4.15
2022-07-31T03:18:18.932Z,4.03
2022-07-31T03:20:21.771Z,3.65
2022-07-31T03:22:24.113Z,4.47
2022-07-31T03:24:27.090Z,5.25
2022-07-31T03:26:29.100Z,4.50
2022-07-31T03:28:31.412Z,4.90
2022-07-31T03:30:33.697Z,5.68
2022-07-31T03:32:36.610Z,4.68
2022-07-31T03:34:38.526Z,4.43
2022-07-31T03:36:40.639Z,4.32
2022-07-31T03:38:46.481Z,4.43
2022-07-31T03:41:01.175Z,5.05
2022-07-31T03:43:04.329Z,5.93
2022-07-31T03:45:08.026Z,4.90
2022-07-31T03:47:16.593Z,4.55
2022-07-31T03:49:19.715Z,5.15
2022-07-31T03:51:21.733Z,5.85
2022-07-31T03:53:25.289Z,4.53
2022-07-31T03:55:27.703Z,5.75
2022-07-31T03:57:31.370Z,8.40
2022-07-31T03:59:38.580Z,5.22
2022-07-31T04:01:57.345Z,5.28
2022-07-31T04:04:29.521Z,5.93
2022-07-31T04:06:34.417Z,5.47
2022-07-31T04:08:38.147Z,6.60
2022-07-31T04:10:40.109Z,6.28
2022-07-31T04:12:44.108Z,7.47
2022-07-31T04:14:46.229Z,5.97
2022-07-31T04:16:48.364Z,6.75
2022-07-31T04:18:51.108Z,5.72
2022-07-31T04:20:53.928Z,6.63
2022-07-31T04:22:55.874Z,6.00
2022-07-31T04:25:24.260Z,7.05
2022-07-31T04:28:04.833Z,6.18
2022-07-31T04:30:08.617Z,7.03
2022-07-31T04:32:10.621Z,6.57
2022-07-31T04:34:18.741Z,6.05
2022-07-31T04:36:30.497Z,7.88
2022-07-31T04:38:34.250Z,8.75
2022-07-31T04:40:36.290Z,7.18
2022-07-31T04:42:38.150Z,6.53
2022-07-31T04:44:40.054Z,6.45
2022-07-31T04:46:44.167Z,6.40
2022-07-31T04:48:46.273Z,5.30
2022-07-31T04:50:51.805Z,8.05
2022-07-31T04:52:54.241Z,6.70
2022-07-31T04:54:59.306Z,5.85
2022-07-31T04:57:02.621Z,6.47
2022-07-31T04:59:07.889Z,6.97
2022-07-31T05:01:11.669Z,6.13
2022-07-31T05:03:16.820Z,6.10
2022-07-31T05:05:19.747Z,5.53
2022-07-31T05:07:23.295Z,6.65
2022-07-31T05:09:26.094Z,6.78
2022-07-31T05:11:35.459Z,7.63
2022-07-31T05:13:37.345Z,7.13
2022-07-31T05:15:39.207Z,6.18
2022-07-31T05:17:41.082Z,5.25
2022-07-31T05:20:15.416Z,6.47
2022-07-31T05:22:36.163Z,7.60
2022-07-31T05:24:47.717Z,6.43
2022-07-31T05:26:50.002Z,7.47
2022-07-31T05:28:58.297Z,7.53
2022-07-31T05:31:01.413Z,10.65
2022-07-31T05:33:05.461Z,8.45
2022-07-31T05:35:08.031Z,8.00
2022-07-31T05:37:12.057Z,7.50
2022-07-31T05:39:17.624Z,8.18
2022-07-31T05:41:38.509Z,8.70
2022-07-31T05:44:00.664Z,8.50
2022-07-31T05:46:08.241Z,8.90
2022-07-31T05:48:10.404Z,8.30
2022-07-31T05:50:12.289Z,8.95
2022-07-31T05:52:14.532Z,8.68
2022-07-31T05:54:16.607Z,8.90
2022-07-31T05:56:36.806Z,8.75
2022-07-31T05:58:38.764Z,9.35
2022-07-31T06:00:41.477Z,9.18
2022-07-31T06:02:43.291Z,9.32
2022-07-31T06:05:05.595Z,8.57
2022-07-31T06:07:08.354Z,9.88
2022-07-31T06:09:10.320Z,8.13
2022-07-31T06:11:17.243Z,9.60
2022-07-31T06:13:19.490Z,8.50
2022-07-31T06:15:23.689Z,8.75
2022-07-31T06:17:40.363Z,8.73
2022-07-31T06:20:01.072Z,8.82
2022-07-31T06:22:03.175Z,9.55
2022-07-31T06:24:06.909Z,9.55
2022-07-31T06:26:17.635Z,8.68
2022-07-31T06:28:20.386Z,8.65
2022-07-31T06:30:31.546Z,10.20
2022-07-31T06:32:34.689Z,9.20
2022-07-31T06:34:36.606Z,8.45
2022-07-31T06:36:38.641Z,8.82
2022-07-31T06:38:43.281Z,11.52
2022-07-31T06:41:08.166Z,9.45
2022-07-31T06:43:17.964Z,11.23
2022-07-31T06:45:52.626Z,9.20
2022-07-31T06:48:20.733Z,11.10
2022-07-31T06:50:27.924Z,9.45
2022-07-31T06:52:42.830Z,8.45
2022-07-31T06:54:47.882Z,11.20
2022-07-31T06:56:49.932Z,9.80
2022-07-31T06:58:51.832Z,9.70
2022-07-31T07:00:53.696Z,8.52
2022-07-31T07:02:55.638Z,7.90
2022-07-31T07:05:05.860Z,10.25
2022-07-31T07:07:09.030Z,9.15
2022-07-31T07:09:10.881Z,9.20
2022-07-31T07:11:13.158Z,10.40
2022-07-31T07:13:15.559Z,8.43
2022-07-31T07:15:17.522Z,8.05
2022-07-31T07:17:19.525Z,7.45
2022-07-31T07:19:21.946Z,7.28
2022-07-31T07:21:24.173Z,6.85
2022-07-31T07:23:26.398Z,6.80
2022-07-31T07:25:51.716Z,7.15
2022-07-31T07:27:53.886Z,7.15
2022-07-31T07:29:56.618Z,9.32
2022-07-31T07:32:00.002Z,6.68
2022-07-31T07:34:06.027Z,7.45
2022-07-31T07:36:08.125Z,6.90
2022-07-31T07:38:27.269Z,8.68
2022-07-31T07:40:29.789Z,7.90
2022-07-31T07:42:32.145Z,6.97
2022-07-31T07:44:34.171Z,7.30
2022-07-31T07:46:36.207Z,7.13
2022-07-31T07:48:39.020Z,9.80
2022-07-31T07:50:52.842Z,6.63
2022-07-31T07:53:03.606Z,6.80
2022-07-31T07:55:24.393Z,6.93
2022-07-31T07:57:45.653Z,6.60
2022-07-31T08:00:26.205Z,7.50
2022-07-31T08:02:36.341Z,7.90
2022-07-31T08:04:39.524Z,6.30
2022-07-31T08:06:41.574Z,8.93
2022-07-31T08:08:43.454Z,5.85
2022-07-31T08:10:45.720Z,6.40
2022-07-31T08:13:16.923Z,6.65
2022-07-31T08:15:37.471Z,6.70
2022-07-31T08:17:47.287Z,6.90
2022-07-31T08:19:51.421Z,6.00
2022-07-31T08:21:53.634Z,6.40
2022-07-31T08:23:56.508Z,5.63
2022-07-31T08:25:58.294Z,4.65
2022-07-31T08:28:00.598Z,6.55
2022-07-31T08:30:05.855Z,5.90
2022-07-31T08:32:08.013Z,5.18
2022-07-31T08:34:42.029Z,4.07
2022-07-31T08:36:44.516Z,3.67
2022-07-31T08:38:47.266Z,4.10
2022-07-31T08:41:07.813Z,3.30
2022-07-31T08:43:31.072Z,4.25
2022-07-31T08:45:32.142Z,5.03
2022-07-31T08:47:49.179Z,3.78
2022-07-31T08:49:58.707Z,3.55
2022-07-31T08:52:02.088Z,4.53
2022-07-31T08:54:26.194Z,3.13
2022-07-31T08:56:28.906Z,3.20
2022-07-31T08:58:33.970Z,3.78
2022-07-31T09:00:40.753Z,2.63
2022-07-31T09:02:44.974Z,3.83
2022-07-31T09:04:52.992Z,3.50
2022-07-31T09:07:00.071Z,3.95
2022-07-31T09:09:02.256Z,3.03
2022-07-31T09:11:09.858Z,5.07
2022-07-31T09:13:18.042Z,6.63
2022-07-31T09:15:24.282Z,3.35
2022-07-31T09:17:34.531Z,2.97
2022-07-31T09:19:52.720Z,2.80
2022-07-31T09:22:08.462Z,3.20
2022-07-31T09:24:14.375Z,2.20
2022-07-31T09:26:16.726Z,2.28
2022-07-31T09:28:23.305Z,2.72
2022-07-31T09:30:27.353Z,2.50
2022-07-31T09:32:49.412Z,2.70
2022-07-31T09:35:17.626Z,3.70
2022-07-31T09:37:25.202Z,1.63
2022-07-31T09:39:57.197Z,1.65
2022-07-31T09:42:16.394Z,1.63
2022-07-31T09:44:47.083Z,2.55
2022-07-31T09:46:50.325Z,2.13
2022-07-31T09:48:59.808Z,2.47
2022-07-31T09:51:06.248Z,2.53
2022-07-31T09:53:08.973Z,2.83
2022-07-31T09:55:16.978Z,2.10
2022-07-31T09:57:21.869Z,2.00
2022-07-31T09:59:29.949Z,2.95
2022-07-31T10:01:36.596Z,2.65
2022-07-31T10:03:40.937Z,4.20
2022-07-31T10:05:43.740Z,2.67
2022-07-31T10:07:46.847Z,2.58
2022-07-31T10:09:57.366Z,3.70
2022-07-31T10:12:42.073Z,4.07
2022-07-31T10:14:47.192Z,2.70
2022-07-31T10:16:54.644Z,3.10
2022-07-31T10:19:17.005Z,2.83
2022-07-31T10:21:42.585Z,3.45
2022-07-31T10:23:52.836Z,3.60
2022-07-31T10:25:58.485Z,4.93
2022-07-31T10:28:01.636Z,2.92
2022-07-31T10:30:05.543Z,3.70
2022-07-31T10:32:09.457Z,5.65
2022-07-31T10:34:19.865Z,4.10
2022-07-31T10:36:29.857Z,2.70
2022-07-31T10:38:51.158Z,3.63
2022-07-31T10:41:41.255Z,3.20
2022-07-31T10:43:51.149Z,4.00
2022-07-31T10:46:33.801Z,3.25
2022-07-31T10:48:54.734Z,3.83
2022-07-31T10:51:15.320Z,3.70
2022-07-31T10:53:51.631Z,5.30
2022-07-31T10:56:18.194Z,2.88
2022-07-31T10:58:57.357Z,3.10
2022-07-31T11:01:19.364Z,3.80
2022-07-31T11:03:41.823Z,3.65
2022-07-31T11:06:03.249Z,4.65
2022-07-31T11:08:48.813Z,5.20
2022-07-31T11:11:33.964Z,2.85
2022-07-31T11:13:56.172Z,3.17
2022-07-31T11:16:18.241Z,3.45
2022-07-31T11:18:38.220Z,4.78
2022-07-31T11:20:40.746Z,3.00
2022-07-31T11:22:43.133Z,3.50
2022-07-31T11:24:58.677Z,3.50
2022-07-31T11:27:00.520Z,3.17
2022-07-31T11:30:00.740Z,3.47
2022-07-31T11:31:30.074Z,2.92
2022-07-31T11:33:41.942Z,3.40
2022-07-31T11:35:44.930Z,3.17
2022-07-31T11:37:58.037Z,2.88
2022-07-31T11:40:01.907Z,5.97
2022-07-31T11:42:05.052Z,2.50
2022-07-31T11:44:09.612Z,2.63
2022-07-31T11:46:12.049Z,4.45
2022-07-31T11:48:19.492Z,3.53
2022-07-31T11:50:21.518Z,3.25
2022-07-31T11:52:31.220Z,3.08
2022-07-31T11:54:39.608Z,4.32
2022-07-31T11:56:41.474Z,2.70
2022-07-31T11:58:54.777Z,3.38
2022-07-31T12:00:59.023Z,2.85
2022-07-31T12:03:00.986Z,2.92
2022-07-31T12:05:04.291Z,3.33
2022-07-31T12:07:07.753Z,2.50
2022-07-31T12:10:00.925Z,3.10
2022-07-31T12:11:31.802Z,3.22
2022-07-31T12:13:34.047Z,2.55
2022-07-31T12:15:35.990Z,2.58
2022-07-31T12:17:37.917Z,3.15
2022-07-31T12:19:39.746Z,2.30
2022-07-31T12:21:42.136Z,3.50
2022-07-31T12:23:52.032Z,2.30
2022-07-31T12:25:54.105Z,4.78
2022-07-31T12:27:56.187Z,2.20
2022-07-31T12:29:58.353Z,4.85
2022-07-31T12:32:00.886Z,2.85
2022-07-31T12:34:02.686Z,3.13
2022-07-31T12:36:12.113Z,2.13
2022-07-31T12:38:40.556Z,4.18
2022-07-31T12:40:43.216Z,1.35
2022-07-31T12:42:45.181Z,1.38
2022-07-31T12:44:54.069Z,2.13
2022-07-31T12:46:56.256Z,1.00
2022-07-31T12:48:58.289Z,1.35
2022-07-31T12:51:01.532Z,1.63
2022-07-31T12:53:04.860Z,3.08
2022-07-31T12:55:07.122Z,4.22
2022-07-31T12:57:09.153Z,2.58
2022-07-31T12:59:11.530Z,2.58
2022-07-31T13:01:13.334Z,1.60
2022-07-31T13:03:15.561Z,1.50
2022-07-31T13:05:17.881Z,1.55
2022-07-31T13:07:19.763Z,2.83
2022-07-31T13:09:21.945Z,3.15
2022-07-31T13:11:25.790Z,1.60
2022-07-31T13:13:27.987Z,2.30
2022-07-31T13:15:30.187Z,1.75
2022-07-31T13:17:32.084Z,3.53
2022-07-31T13:19:33.906Z,2.03
2022-07-31T13:21:42.494Z,1.60
2022-07-31T13:23:55.685Z,1.17
2022-07-31T13:25:59.867Z,1.75
2022-07-31T13:28:01.773Z,2.08
2022-07-31T13:30:04.451Z,1.30
2022-07-31T13:32:06.681Z,1.15
2022-07-31T13:34:08.696Z,2.97
2022-07-31T13:36:10.938Z,4.13
2022-07-31T13:38:14.716Z,1.58
2022-07-31T13:40:16.557Z,1.65
2022-07-31T13:42:18.583Z,2.17
2022-07-31T13:44:20.471Z,3.58
2022-07-31T13:46:23.568Z,1.80
2022-07-31T13:48:25.435Z,3.03
2022-07-31T13:50:27.255Z,6.63
2022-07-31T13:52:29.048Z,2.60
2022-07-31T13:54:30.874Z,2.63
2022-07-31T13:56:38.951Z,1.70
2022-07-31T13:58:44.954Z,4.00
2022-07-31T14:00:47.728Z,2.00
2022-07-31T14:02:50.145Z,1.45
2022-07-31T14:04:51.930Z,1.92
2022-07-31T14:06:54.646Z,1.63
2022-07-31T14:08:56.474Z,1.38
2022-07-31T14:10:58.726Z,1.67
2022-07-31T14:13:00.511Z,1.30
2022-07-31T14:15:04.392Z,1.73
2022-07-31T14:17:06.277Z,1.10
2022-07-31T14:19:08.565Z,1.13
2022-07-31T14:21:10.383Z,2.30
2022-07-31T14:23:12.295Z,3.03
2022-07-31T14:25:14.190Z,0.90
2022-07-31T14:27:16.032Z,1.60
2022-07-31T14:29:18.095Z,1.20
2022-07-31T14:31:19.904Z,0.98
2022-07-31T14:33:21.719Z,3.00
2022-07-31T14:35:23.661Z,0.52
2022-07-31T14:37:25.616Z,3.65
2022-07-31T14:39:27.477Z,0.73
2022-07-31T14:41:29.319Z,0.70
2022-07-31T14:43:31.157Z,0.80
2022-07-31T14:45:32.918Z,0.65
2022-07-31T14:47:55.157Z,0.80
2022-07-31T14:50:07.742Z,8.18
2022-07-31T14:52:11.857Z,3.88
2022-07-31T14:54:13.752Z,1.33
2022-07-31T14:56:27.273Z,1.25
2022-07-31T14:58:57.470Z,1.20
2022-07-31T15:00:59.948Z,1.45
2022-07-31T15:03:01.779Z,2.10
2022-07-31T15:06:49.373Z,1.65
2022-07-31T15:07:35.802Z,2.65
2022-07-31T15:09:39.376Z,1.55
2022-07-31T15:12:00.382Z,1.02
2022-07-31T15:14:03.455Z,1.13
2022-07-31T15:16:05.599Z,1.10
2022-07-31T15:18:07.584Z,1.15
2022-07-31T15:20:10.877Z,1.02
2022-07-31T15:22:17.159Z,1.42
2022-07-31T15:24:19.442Z,1.13
2022-07-31T15:26:21.281Z,2.28
2022-07-31T15:28:23.101Z,1.00
2022-07-31T15:30:25.107Z,1.65
2022-07-31T15:32:26.965Z,1.45
2022-07-31T15:34:29.529Z,1.80
2022-07-31T15:36:31.334Z,1.75
2022-07-31T15:38:33.080Z,1.30
2022-07-31T15:40:35.408Z,2.25
2022-07-31T15:42:40.560Z,1.38
2022-07-31T15:44:42.689Z,1.75
2022-07-31T15:46:44.520Z,2.75
2022-07-31T15:48:46.469Z,1.95
2022-07-31T15:50:48.303Z,3.10
2022-07-31T15:52:50.285Z,1.02
2022-07-31T15:54:52.934Z,1.67
2022-07-31T15:56:54.841Z,1.77
2022-07-31T15:58:56.557Z,2.17
2022-07-31T16:00:58.978Z,2.50
2022-07-31T16:03:01.836Z,1.40
2022-07-31T16:05:12.100Z,1.80
2022-07-31T16:08:32.333Z,1.20
2022-07-31T16:10:02.483Z,4.18
2022-07-31T16:12:08.028Z,3.60
2022-07-31T16:14:10.782Z,1.58
2022-07-31T16:16:12.617Z,2.75
2022-07-31T16:18:18.124Z,2.03
2022-07-31T16:20:26.652Z,1.33
2022-07-31T16:22:29.903Z,1.67
2022-07-31T16:24:31.812Z,1.88
2022-07-31T16:26:37.027Z,1.40
2022-07-31T16:28:39.642Z,4.15
2022-07-31T16:30:42.438Z,2.83
2022-07-31T16:32:44.651Z,6.32
2022-07-31T16:34:51.651Z,3.45
2022-07-31T16:36:54.466Z,2.47
2022-07-31T16:39:19.026Z,2.92
2022-07-31T16:41:18.157Z,1.70
2022-07-31T16:43:50.706Z,1.63
2022-07-31T16:45:42.414Z,1.55
2022-07-31T16:47:45.860Z,3.60
2022-07-31T16:49:54.095Z,1.90
2022-07-31T16:51:55.942Z,1.90
2022-07-31T16:54:13.051Z,3.13
2022-07-31T16:56:17.970Z,3.08
2022-07-31T16:58:24.520Z,3.25
2022-07-31T17:00:26.812Z,3.15
2022-07-31T17:02:28.625Z,3.92
2022-07-31T17:04:30.682Z,2.03
2022-07-31T17:06:37.108Z,2.30
2022-07-31T17:08:40.087Z,2.65
2022-07-31T17:10:41.999Z,4.53
2022-07-31T17:12:43.747Z,1.90
2022-07-31T17:14:45.790Z,1.88
2022-07-31T17:16:49.370Z,1.95
2022-07-31T17:18:52.681Z,2.28
2022-07-31T17:20:56.737Z,4.10
2022-07-31T17:22:59.978Z,3.75
2022-07-31T17:25:07.371Z,2.17
2022-07-31T17:27:10.209Z,1.67
2022-07-31T17:29:13.093Z,3.40
2022-07-31T17:31:14.949Z,3.92
2022-07-31T17:33:16.715Z,1.23
2022-07-31T17:35:19.732Z,1.27
2022-07-31T17:37:21.805Z,1.35
2022-07-31T17:39:26.227Z,1.42
2022-07-31T17:41:33.102Z,1.52
2022-07-31T17:43:50.615Z,1.30
2022-07-31T17:46:05.747Z,3.60
2022-07-31T17:48:11.050Z,3.22
2022-07-31T17:50:13.194Z,3.17
2022-07-31T17:52:15.365Z,1.33
2022-07-31T17:54:17.259Z,1.55
2022-07-31T17:56:19.409Z,2.83
2022-07-31T17:58:22.372Z,1.77
2022-07-31T18:00:27.324Z,2.05
2022-07-31T18:02:34.497Z,1.17
2022-07-31T18:04:37.806Z,1.40
2022-07-31T18:06:40.210Z,1.75
2022-07-31T18:08:42.073Z,2.70
2022-07-31T18:10:54.023Z,2.25
2022-07-31T18:12:57.280Z,0.77
2022-07-31T18:15:00.446Z,2.42
2022-07-31T18:17:02.493Z,3.03
2022-07-31T18:19:04.405Z,1.33
2022-07-31T18:21:06.246Z,3.38
2022-07-31T18:23:10.301Z,1.77
2022-07-31T18:25:12.508Z,1.50
2022-07-31T18:27:14.280Z,1.40
2022-07-31T18:29:17.166Z,2.35
2022-07-31T18:31:32.281Z,1.55
2022-07-31T18:33:36.301Z,1.67
2022-07-31T18:35:38.306Z,1.95
2022-07-31T18:37:40.572Z,2.88
2022-07-31T18:39:48.209Z,2.47
2022-07-31T18:41:51.450Z,2.85
2022-07-31T18:43:53.740Z,2.60
2022-07-31T18:45:55.574Z,2.75
2022-07-31T18:47:57.499Z,1.83
2022-07-31T18:51:01.207Z,1.20
2022-07-31T18:52:21.643Z,2.05
2022-07-31T18:54:23.449Z,1.20
2022-07-31T18:56:25.594Z,4.13
2022-07-31T18:58:27.390Z,1.15
2022-07-31T19:00:29.214Z,2.70
2022-07-31T19:02:31.369Z,2.60
2022-07-31T19:04:33.402Z,1.98
2022-07-31T19:06:35.260Z,2.30
2022-07-31T19:08:37.127Z,1.45
2022-07-31T19:10:38.972Z,3.50
2022-07-31T19:12:41.201Z,5.05
2022-07-31T19:14:43.422Z,1.13
2022-07-31T19:16:45.152Z,0.70
2022-07-31T19:18:50.389Z,1.02
2022-07-31T19:21:00.065Z,2.05
2022-07-31T19:23:14.343Z,1.52
2022-07-31T19:25:16.156Z,2.28
2022-07-31T19:27:18.194Z,1.65
2022-07-31T19:29:20.935Z,1.95
2022-07-31T19:31:23.060Z,3.50
2022-07-31T19:33:24.925Z,1.95
2022-07-31T19:35:27.385Z,1.02
2022-07-31T19:37:29.142Z,0.90
2022-07-31T19:39:31.292Z,1.75
2022-07-31T19:41:34.381Z,3.95
2022-07-31T19:43:36.325Z,1.33
2022-07-31T19:46:00.496Z,2.83
2022-07-31T19:48:00.018Z,0.70
2022-07-31T19:50:02.022Z,0.70
2022-07-31T19:52:04.136Z,3.50
2022-07-31T19:54:06.127Z,0.75
2022-07-31T19:56:08.676Z,1.67
2022-07-31T19:58:11.016Z,0.80
2022-07-31T20:00:13.432Z,1.42
2022-07-31T20:02:16.941Z,1.08
2022-07-31T20:04:19.043Z,0.75
2022-07-31T20:06:21.840Z,0.73
2022-07-31T20:08:25.834Z,1.98
2022-07-31T20:10:29.203Z,1.20
2022-07-31T20:12:31.550Z,2.33
2022-07-31T20:14:33.392Z,1.52
2022-07-31T20:16:35.485Z,2.67
2022-07-31T20:18:37.269Z,1.75
2022-07-31T20:20:39.418Z,1.50
2022-07-31T20:22:41.487Z,1.48
2022-07-31T20:24:43.329Z,0.98
2022-07-31T20:26:45.181Z,1.95
2022-07-31T20:28:47.185Z,3.47
2022-07-31T20:30:49.254Z,1.65
2022-07-31T20:32:52.876Z,0.90
2022-07-31T20:34:54.663Z,1.77
2022-07-31T20:36:58.345Z,1.75
2022-07-31T20:39:01.532Z,1.33
2022-07-31T20:41:03.320Z,1.55
2022-07-31T20:43:05.117Z,1.27
2022-07-31T20:45:07.737Z,2.10
2022-07-31T20:47:09.529Z,1.35
2022-07-31T20:49:27.227Z,1.98
2022-07-31T20:51:34.869Z,1.17
2022-07-31T20:53:36.757Z,2.30
2022-07-31T20:55:38.552Z,2.47
2022-07-31T20:57:40.459Z,2.13
2022-07-31T20:59:42.256Z,1.55
2022-07-31T21:01:44.112Z,1.08
2022-07-31T21:03:46.579Z,2.63
2022-07-31T21:05:48.890Z,1.25
2022-07-31T21:07:50.687Z,1.20
2022-07-31T21:09:52.575Z,2.55
2022-07-31T21:11:54.453Z,1.77
2022-07-31T21:13:56.252Z,2.35
2022-07-31T21:15:58.036Z,1.55
2022-07-31T21:17:59.835Z,1.85
2022-07-31T21:20:07.225Z,1.52
2022-07-31T21:22:08.950Z,3.05
2022-07-31T21:24:11.029Z,1.20
2022-07-31T21:26:14.509Z,3.05
2022-07-31T21:28:16.695Z,2.80
2022-07-31T21:30:18.633Z,0.90
2022-07-31T21:32:20.839Z,1.00
2022-07-31T21:34:23.047Z,1.10
2022-07-31T21:36:25.236Z,1.90
2022-07-31T21:38:27.340Z,1.10
2022-07-31T21:40:30.130Z,2.60
2022-07-31T21:42:32.474Z,1.33
2022-07-31T21:44:39.515Z,1.70
2022-07-31T21:46:48.177Z,3.65
2022-07-31T21:48:54.501Z,1.95
2022-07-31T21:50:58.450Z,1.38
2022-07-31T21:53:01.434Z,2.80
2022-07-31T21:55:04.571Z,6.40
2022-07-31T21:57:06.359Z,1.45
2022-07-31T21:59:08.166Z,1.58
2022-07-31T22:01:10.984Z,2.05
2022-07-31T22:03:12.970Z,1.77
2022-07-31T22:05:33.316Z,4.20
2022-07-31T22:07:49.727Z,2.42
2022-07-31T22:09:51.778Z,2.53
2022-07-31T22:12:01.729Z,1.65
2022-07-31T22:14:03.816Z,2.05
2022-07-31T22:16:06.855Z,2.08
2022-07-31T22:18:09.025Z,2.47
2022-07-31T22:20:11.592Z,1.13
2022-07-31T22:22:13.557Z,3.03
2022-07-31T22:24:15.662Z,3.35
2022-07-31T22:26:17.620Z,4.22
2022-07-31T22:28:21.205Z,0.85
2022-07-31T22:30:27.920Z,1.40
2022-07-31T22:32:31.588Z,2.67
2022-07-31T22:34:37.437Z,1.48
2022-07-31T22:36:40.092Z,1.27
2022-07-31T22:38:44.111Z,2.67
2022-07-31T22:40:46.029Z,1.55
2022-07-31T22:42:56.023Z,2.38
2022-07-31T22:45:00.058Z,2.00
2022-07-31T22:47:02.289Z,5.22
2022-07-31T22:49:05.952Z,1.92
2022-07-31T22:51:08.207Z,3.20
2022-07-31T22:53:10.055Z,2.65
2022-07-31T22:55:13.629Z,2.42
2022-07-31T22:57:16.303Z,1.10
2022-07-31T22:59:18.081Z,0.77
2022-07-31T23:01:19.947Z,2.15
2022-07-31T23:03:22.009Z,0.80
2022-07-31T23:05:23.844Z,0.90
2022-07-31T23:07:25.554Z,1.13
2022-07-31T23:09:27.456Z,0.93
2022-07-31T23:11:29.554Z,1.13
2022-07-31T23:13:31.300Z,1.77
2022-07-31T23:15:33.225Z,3.72
2022-07-31T23:17:35.085Z,1.10
2022-07-31T23:19:37.066Z,1.90
2022-07-31T23:21:38.872Z,1.50
2022-07-31T23:23:40.752Z,0.90
2022-07-31T23:25:51.064Z,2.45
2022-07-31T23:27:53.076Z,2.28
2022-07-31T23:29:54.875Z,2.53
2022-07-31T23:31:56.842Z,1.92
2022-07-31T23:33:58.606Z,1.00
2022-07-31T23:36:00.974Z,1.50
2022-07-31T23:38:03.036Z,2.05
2022-07-31T23:40:05.551Z,2.90
2022-07-31T23:42:26.112Z,1.35
2022-07-31T23:44:27.933Z,1.70
2022-07-31T23:46:30.143Z,2.35
2022-07-31T23:48:35.390Z,1.27
2022-07-31T23:50:37.772Z,1.35
2022-07-31T23:52:39.595Z,2.33
2022-07-31T23:54:41.367Z,1.50
2022-07-31T23:56:43.432Z,1.35
2022-07-31T23:58:45.253Z,1.77
